Time;durP1;ratioP1;P1;durP2;ratioP2;P2;SDS_P1;SDS_P2;PMS_P1;PMS_P2;Temp;Humidity;BMP_temperature;BMP_pressure;BME280_temperature;BME280_humidity;BME280_pressure;Samples;Min_cycle;Max_cycle;Signal;HPM_P1;HPM_P2
2023/12/17 10:09:57;;;;;;;513.70;211.30;;;;;;;;;;5071432;27;20564;-50
2023/12/17 10:12:22;;;;;;;474.73;189.23;;;;;;;;;;5015072;28;20258;-52
2023/12/17 10:14:48;;;;;;;476.70;182.90;;;;;;;;;;5011514;28;20235;-52
2023/12/17 10:17:17;;;;;;;459.50;175.60;;;;;;;;;;5012507;28;20413;-50
2023/12/17 10:19:43;;;;;;;445.97;169.57;;;;;;;;;;5008109;28;20212;-49
2023/12/17 10:22:09;;;;;;;444.93;166.87;;;;;;;;;;5010939;28;20228;-48
2023/12/17 10:24:37;;;;;;;410.17;157.77;;;;;;;;;;5023796;28;20172;-49
2023/12/17 10:27:06;;;;;;;423.97;156.83;;;;;;;;;;5024481;28;20225;-49
2023/12/17 10:29:33;;;;;;;422.43;158.50;;;;;;;;;;5023779;28;20223;-49
2023/12/17 10:31:59;;;;;;;425.27;157.47;;;;;;;;;;5023086;28;20223;-49
2023/12/17 10:34:28;;;;;;;406.23;152.33;;;;;;;;;;5023521;28;20270;-49
2023/12/17 10:36:54;;;;;;;421.53;157.27;;;;;;;;;;5023508;28;20716;-49
2023/12/17 10:39:20;;;;;;;393.23;147.07;;;;;;;;;;5023936;28;20279;-49
2023/12/17 10:41:47;;;;;;;401.33;148.70;;;;;;;;;;5023523;28;20216;-49
2023/12/17 10:44:14;;;;;;;411.47;155.53;;;;;;;;;;5023919;28;20239;-50
2023/12/17 10:46:44;;;;;;;407.00;154.90;;;;;;;;;;5022751;28;20236;-50
2023/12/17 10:49:10;;;;;;;;;;;;;;;;;;5023042;28;20240;-49
2023/12/17 10:51:40;;;;;;;406.00;153.50;;;;;;;;;;5023191;28;20347;-49
2023/12/17 10:54:06;;;;;;;416.63;158.60;;;;;;;;;;5023420;28;20248;-50
2023/12/17 10:56:35;;;;;;;407.50;154.87;;;;;;;;;;5023379;28;20246;-49
2023/12/17 10:59:02;;;;;;;392.03;148.00;;;;;;;;;;5023344;28;20239;-49
2023/12/17 11:01:28;;;;;;;392.53;150.70;;;;;;;;;;5023141;28;20714;-49
2023/12/17 11:03:55;;;;;;;411.90;156.07;;;;;;;;;;5023275;28;20251;-50
2023/12/17 11:06:21;;;;;;;406.63;154.27;;;;;;;;;;5023478;28;20191;-49
2023/12/17 11:08:47;;;;;;;394.87;150.53;;;;;;;;;;5022503;28;20595;-49
2023/12/17 11:11:13;;;;;;;408.50;156.03;;;;;;;;;;5022505;28;20707;-49
2023/12/17 11:13:39;;;;;;;398.10;149.70;;;;;;;;;;5022848;28;20252;-49
2023/12/17 11:16:17;;;;;;;395.10;148.30;;;;;;;;;;5022747;28;20216;-49
2023/12/17 11:18:44;;;;;;;414.17;154.80;;;;;;;;;;5022657;28;20229;-49
2023/12/17 11:21:10;;;;;;;391.70;146.10;;;;;;;;;;5011200;28;20594;-49
2023/12/17 11:23:37;;;;;;;402.10;150.83;;;;;;;;;;5009646;28;20228;-50
2023/12/17 11:26:03;;;;;;;399.60;151.80;;;;;;;;;;5009882;28;20236;-50
2023/12/17 11:28:30;;;;;;;398.20;151.63;;;;;;;;;;5009279;28;20221;-50
2023/12/17 11:30:56;;;;;;;391.20;145.70;;;;;;;;;;5009626;28;20308;-49
2023/12/17 11:33:22;;;;;;;415.33;155.83;;;;;;;;;;5009303;28;20177;-49
2023/12/17 11:35:48;;;;;;;364.10;137.60;;;;;;;;;;5010023;28;20172;-49
2023/12/17 11:38:15;;;;;;;386.37;145.67;;;;;;;;;;5009402;28;20235;-49
2023/12/17 11:40:40;;;;;;;394.23;151.07;;;;;;;;;;5009398;28;20213;-50
2023/12/17 11:43:07;;;;;;;403.73;155.30;;;;;;;;;;5008987;28;20213;-49
2023/12/17 11:45:34;;;;;;;389.20;148.47;;;;;;;;;;5009128;28;20175;-49
2023/12/17 11:48:10;;;;;;;409.33;154.13;;;;;;;;;;5009550;28;20608;-48
2023/12/17 11:50:39;;;;;;;383.07;145.77;;;;;;;;;;5009012;28;20506;-49
2023/12/17 11:53:05;;;;;;;395.00;149.07;;;;;;;;;;5009006;28;20337;-50
2023/12/17 11:55:40;;;;;;;406.13;153.60;;;;;;;;;;5009021;28;20299;-50
2023/12/17 11:58:06;;;;;;;396.43;150.30;;;;;;;;;;5009007;28;20223;-50
2023/12/17 12:00:32;;;;;;;403.83;151.57;;;;;;;;;;5008961;28;20735;-51
2023/12/17 12:02:58;;;;;;;401.27;151.23;;;;;;;;;;5009029;28;20251;-50
2023/12/17 12:05:24;;;;;;;403.63;151.33;;;;;;;;;;5008651;28;20248;-50
2023/12/17 12:07:53;;;;;;;393.97;147.83;;;;;;;;;;5008678;28;20461;-50
2023/12/17 12:10:19;;;;;;;404.93;152.87;;;;;;;;;;5008758;28;20635;-51
2023/12/17 12:12:45;;;;;;;391.40;149.67;;;;;;;;;;5008748;28;20232;-50
2023/12/17 12:15:11;;;;;;;391.90;148.57;;;;;;;;;;5009520;28;20207;-50
2023/12/17 12:17:38;;;;;;;386.10;146.37;;;;;;;;;;5008832;28;20267;-50
2023/12/17 12:20:10;;;;;;;383.80;144.40;;;;;;;;;;5008546;28;20217;-50
2023/12/17 12:22:41;;;;;;;385.20;146.40;;;;;;;;;;5008465;28;20262;-50
2023/12/17 12:25:07;;;;;;;388.40;158.97;;;;;;;;;;5008466;28;20216;-51
2023/12/17 12:27:33;;;;;;;394.30;160.43;;;;;;;;;;5008254;28;20323;-50
2023/12/17 12:29:59;;;;;;;385.27;152.90;;;;;;;;;;5008974;28;20279;-50
2023/12/17 12:32:32;;;;;;;388.23;146.83;;;;;;;;;;5007710;28;20243;-49
2023/12/17 12:34:58;;;;;;;373.93;144.97;;;;;;;;;;5008675;28;20216;-50
2023/12/17 12:37:32;;;;;;;387.57;148.70;;;;;;;;;;5008146;28;20228;-50
2023/12/17 12:39:57;;;;;;;389.47;149.17;;;;;;;;;;5008577;28;20240;-50
2023/12/17 12:42:23;;;;;;;401.40;152.97;;;;;;;;;;5008871;28;20216;-50
2023/12/17 12:44:49;;;;;;;384.37;147.57;;;;;;;;;;5008948;28;20181;-50
2023/12/17 12:47:15;;;;;;;389.10;148.27;;;;;;;;;;5008634;28;20223;-50
2023/12/17 12:49:41;;;;;;;374.70;141.47;;;;;;;;;;5008204;28;20223;-49
2023/12/17 12:52:07;;;;;;;382.10;148.97;;;;;;;;;;5008381;28;20213;-49
2023/12/17 12:54:33;;;;;;;373.23;146.33;;;;;;;;;;5008550;28;20181;-50
2023/12/17 12:56:59;;;;;;;387.37;148.87;;;;;;;;;;5008377;28;20757;-50
2023/12/17 12:59:26;;;;;;;385.63;150.07;;;;;;;;;;5008149;28;20216;-50
2023/12/17 13:01:55;;;;;;;385.00;151.20;;;;;;;;;;5007896;28;20220;-50
2023/12/17 13:04:21;;;;;;;382.57;147.50;;;;;;;;;;5008136;28;20216;-50
2023/12/17 13:06:47;;;;;;;388.77;152.83;;;;;;;;;;5008169;28;20215;-49
2023/12/17 13:09:14;;;;;;;381.90;144.33;;;;;;;;;;5008489;28;20185;-50
2023/12/17 13:11:40;;;;;;;382.50;148.33;;;;;;;;;;5007604;28;20496;-50
2023/12/17 13:14:06;;;;;;;399.93;153.77;;;;;;;;;;5008157;28;20307;-50
2023/12/17 13:16:34;;;;;;;397.07;152.37;;;;;;;;;;5008113;28;20224;-50
2023/12/17 13:19:00;;;;;;;389.60;149.63;;;;;;;;;;5007675;28;20630;-49
2023/12/17 13:21:26;;;;;;;407.00;156.50;;;;;;;;;;5007716;28;20233;-50
2023/12/17 13:23:52;;;;;;;380.90;147.03;;;;;;;;;;5008126;28;20201;-50
2023/12/17 13:26:18;;;;;;;374.70;144.40;;;;;;;;;;5007773;28;20303;-49
2023/12/17 13:28:44;;;;;;;394.50;151.37;;;;;;;;;;5006213;28;20209;-50
2023/12/17 13:31:10;;;;;;;386.33;150.13;;;;;;;;;;5007687;28;20221;-50
2023/12/17 13:33:36;;;;;;;403.67;156.37;;;;;;;;;;5007332;28;20197;-51
2023/12/17 13:36:03;;;;;;;402.90;154.00;;;;;;;;;;5007615;28;20201;-50
2023/12/17 13:38:29;;;;;;;399.53;154.33;;;;;;;;;;5006750;28;20224;-51
2023/12/17 13:40:55;;;;;;;408.40;154.67;;;;;;;;;;5007034;28;20612;-50
2023/12/17 13:43:22;;;;;;;405.97;155.07;;;;;;;;;;5006780;28;20219;-49
2023/12/17 13:45:48;;;;;;;391.13;150.80;;;;;;;;;;5007319;28;20527;-50
2023/12/17 13:48:15;;;;;;;372.47;145.43;;;;;;;;;;5007749;28;20191;-50
2023/12/17 13:50:43;;;;;;;390.23;150.33;;;;;;;;;;5007294;28;20248;-49
2023/12/17 13:53:09;;;;;;;413.87;157.03;;;;;;;;;;5006823;28;20227;-51
2023/12/17 13:55:35;;;;;;;387.70;148.10;;;;;;;;;;5007002;28;20217;-49
2023/12/17 13:58:01;;;;;;;384.43;148.67;;;;;;;;;;5007264;28;20641;-49
2023/12/17 14:00:27;;;;;;;407.93;155.63;;;;;;;;;;5007119;28;20406;-49
2023/12/17 14:02:53;;;;;;;397.60;150.77;;;;;;;;;;5007599;28;20674;-50
2023/12/17 14:05:19;;;;;;;385.00;144.70;;;;;;;;;;5007246;28;20217;-51
2023/12/17 14:07:45;;;;;;;388.20;151.93;;;;;;;;;;5006963;28;20224;-50
2023/12/17 14:10:12;;;;;;;394.47;151.93;;;;;;;;;;5006948;28;20582;-50
2023/12/17 14:12:38;;;;;;;385.10;147.07;;;;;;;;;;5006912;28;20177;-50
2023/12/17 14:15:06;;;;;;;388.20;148.10;;;;;;;;;;5007651;28;20177;-50
2023/12/17 14:17:32;;;;;;;398.87;151.27;;;;;;;;;;5006889;28;20414;-50
2023/12/17 14:19:58;;;;;;;380.90;147.07;;;;;;;;;;5006658;28;20232;-49
2023/12/17 14:22:24;;;;;;;390.50;147.77;;;;;;;;;;4993341;28;20228;-50
2023/12/17 14:24:50;;;;;;;395.97;151.37;;;;;;;;;;4987433;28;20361;-50
2023/12/17 14:27:17;;;;;;;371.60;139.67;;;;;;;;;;4987920;28;20637;-50
2023/12/17 14:29:42;;;;;;;400.47;151.67;;;;;;;;;;4987112;28;20217;-50
2023/12/17 14:32:09;;;;;;;401.87;155.10;;;;;;;;;;4987101;28;20224;-49
2023/12/17 14:34:39;;;;;;;390.30;148.53;;;;;;;;;;4986895;28;20225;-50
2023/12/17 14:37:05;;;;;;;400.90;152.23;;;;;;;;;;4987261;28;20855;-50
2023/12/17 14:39:31;;;;;;;393.13;152.47;;;;;;;;;;4987020;28;20205;-50
2023/12/17 14:41:57;;;;;;;385.67;150.50;;;;;;;;;;4987712;28;20245;-50
2023/12/17 14:44:23;;;;;;;392.00;149.53;;;;;;;;;;4987328;28;20213;-50
2023/12/17 14:46:49;;;;;;;391.87;151.07;;;;;;;;;;4987438;28;20221;-50
2023/12/17 14:49:15;;;;;;;398.43;149.07;;;;;;;;;;5005747;28;20217;-50
2023/12/17 14:51:41;;;;;;;389.30;146.77;;;;;;;;;;5006841;28;20303;-50
2023/12/17 14:54:07;;;;;;;394.70;150.37;;;;;;;;;;5007097;28;20165;-50
2023/12/17 14:56:33;;;;;;;378.83;144.93;;;;;;;;;;5009839;28;20583;-50
2023/12/17 14:59:00;;;;;;;378.70;144.07;;;;;;;;;;5010270;28;20646;-51
2023/12/17 15:01:28;;;;;;;372.17;141.20;;;;;;;;;;5010690;28;20729;-50
2023/12/17 15:03:54;;;;;;;383.10;144.97;;;;;;;;;;5011547;28;20224;-50
2023/12/17 15:06:20;;;;;;;397.43;147.87;;;;;;;;;;5011955;28;20165;-50
2023/12/17 15:08:46;;;;;;;389.53;148.57;;;;;;;;;;5009670;28;20316;-50
2023/12/17 15:11:14;;;;;;;362.63;138.20;;;;;;;;;;5011326;28;20212;-50
2023/12/17 15:13:40;;;;;;;394.77;147.27;;;;;;;;;;5011421;28;20641;-49
2023/12/17 15:16:06;;;;;;;387.53;146.23;;;;;;;;;;5011296;28;20216;-50
2023/12/17 15:18:34;;;;;;;387.83;146.13;;;;;;;;;;5010827;28;20217;-49
2023/12/17 15:21:00;;;;;;;384.00;144.30;;;;;;;;;;5011704;28;20197;-50
2023/12/17 15:23:26;;;;;;;384.30;143.67;;;;;;;;;;5010955;28;20564;-50
2023/12/17 15:25:52;;;;;;;383.10;143.73;;;;;;;;;;5010966;28;20224;-50
2023/12/17 15:28:18;;;;;;;389.37;148.13;;;;;;;;;;5011060;28;20225;-50
2023/12/17 15:30:44;;;;;;;382.27;145.70;;;;;;;;;;5011161;28;20298;-50
2023/12/17 15:33:10;;;;;;;389.10;145.90;;;;;;;;;;5011403;28;20212;-50
2023/12/17 15:35:36;;;;;;;393.40;150.80;;;;;;;;;;5010675;28;20220;-50
2023/12/17 15:38:03;;;;;;;397.27;149.60;;;;;;;;;;5010508;28;20220;-50
2023/12/17 15:40:29;;;;;;;384.30;141.67;;;;;;;;;;5010368;28;20224;-51
2023/12/17 15:42:55;;;;;;;398.87;146.93;;;;;;;;;;5010855;28;20213;-50
2023/12/17 15:45:22;;;;;;;385.57;142.30;;;;;;;;;;5011248;28;20183;-50
2023/12/17 15:47:48;;;;;;;403.77;147.77;;;;;;;;;;5010447;28;20213;-50
2023/12/17 15:50:14;;;;;;;405.83;150.77;;;;;;;;;;5010016;28;20591;-50
2023/12/17 15:52:40;;;;;;;403.50;151.83;;;;;;;;;;5010257;28;20224;-50
2023/12/17 15:55:06;;;;;;;402.70;149.93;;;;;;;;;;5010049;28;20216;-49
2023/12/17 15:57:32;;;;;;;387.47;146.47;;;;;;;;;;5009991;28;20178;-50
2023/12/17 15:59:58;;;;;;;389.13;144.20;;;;;;;;;;5010380;28;20212;-50
2023/12/17 16:02:24;;;;;;;319.00;125.00;;;;;;;;;;5011220;28;20221;-50
2023/12/17 16:04:50;;;;;;;305.77;119.47;;;;;;;;;;5011544;28;20741;-52
2023/12/17 16:07:16;;;;;;;313.77;121.73;;;;;;;;;;5011635;28;20638;-51
2023/12/17 16:09:42;;;;;;;314.57;122.53;;;;;;;;;;5011202;28;20303;-51
2023/12/17 16:12:08;;;;;;;301.43;117.63;;;;;;;;;;5011886;28;20216;-51
2023/12/17 16:14:34;;;;;;;301.67;117.20;;;;;;;;;;5011535;28;20220;-51
2023/12/17 16:17:01;;;;;;;311.33;121.57;;;;;;;;;;5011504;28;20623;-51
2023/12/17 16:19:27;;;;;;;308.77;121.40;;;;;;;;;;5011224;28;20221;-51
2023/12/17 16:21:53;;;;;;;317.07;124.30;;;;;;;;;;5006607;28;20221;-56
2023/12/17 16:24:22;;;;;;;372.87;149.57;;;;;;;;;;4999225;28;20192;-56
2023/12/17 16:26:47;;;;;;;341.80;134.23;;;;;;;;;;5002991;28;21202;-57
2023/12/17 16:29:13;;;;;;;358.30;140.90;;;;;;;;;;5001558;28;20209;-57
2023/12/17 16:31:39;;;;;;;328.77;127.83;;;;;;;;;;5000941;28;20239;-57
2023/12/17 16:34:06;;;;;;;342.40;133.23;;;;;;;;;;4996188;28;20248;-56
2023/12/17 16:36:38;;;;;;;336.70;132.97;;;;;;;;;;4999633;28;20296;-57
2023/12/17 16:39:04;;;;;;;335.97;131.10;;;;;;;;;;4996439;28;20208;-57
2023/12/17 16:41:30;;;;;;;332.43;128.43;;;;;;;;;;4994952;28;20232;-56
2023/12/17 16:43:56;;;;;;;364.77;143.67;;;;;;;;;;5000592;28;20224;-57
2023/12/17 16:46:22;;;;;;;352.43;138.60;;;;;;;;;;5004087;28;20217;-55
2023/12/17 16:48:48;;;;;;;387.23;156.73;;;;;;;;;;4999752;28;20307;-56
2023/12/17 16:51:14;;;;;;;354.70;139.73;;;;;;;;;;5004101;28;20208;-56
2023/12/17 16:53:40;;;;;;;347.73;135.13;;;;;;;;;;4998554;28;20205;-56
2023/12/17 16:56:07;;;;;;;324.37;125.93;;;;;;;;;;4997235;28;20211;-55
2023/12/17 16:58:36;;;;;;;320.23;124.77;;;;;;;;;;5003070;28;20217;-56
2023/12/17 17:01:05;;;;;;;387.57;151.83;;;;;;;;;;4994996;28;21209;-56
2023/12/17 17:03:33;;;;;;;339.97;133.23;;;;;;;;;;4995582;28;20184;-55
2023/12/17 17:05:59;;;;;;;337.97;132.57;;;;;;;;;;4997576;28;20181;-56
2023/12/17 17:08:25;;;;;;;372.00;147.43;;;;;;;;;;4996193;28;20572;-56
2023/12/17 17:10:52;;;;;;;376.37;148.37;;;;;;;;;;4993212;28;20899;-55
2023/12/17 17:13:18;;;;;;;352.97;139.00;;;;;;;;;;4998025;28;20291;-56
2023/12/17 17:15:44;;;;;;;346.57;135.30;;;;;;;;;;4997579;28;20229;-56
2023/12/17 17:18:10;;;;;;;332.37;130.07;;;;;;;;;;5001906;28;20627;-56
2023/12/17 17:20:35;;;;;;;434.17;165.53;;;;;;;;;;4997668;28;20255;-55
2023/12/17 17:23:01;;;;;;;495.43;196.90;;;;;;;;;;4970035;28;20860;-56
2023/12/17 17:25:28;;;;;;;512.10;200.23;;;;;;;;;;4985435;28;20296;-56
2023/12/17 17:27:54;;;;;;;469.07;178.90;;;;;;;;;;4979695;28;20574;-54
2023/12/17 17:30:20;;;;;;;469.50;179.13;;;;;;;;;;4986763;28;21031;-54
2023/12/17 17:32:46;;;;;;;487.47;193.30;;;;;;;;;;4984664;28;20592;-57
2023/12/17 17:35:13;;;;;;;455.43;172.67;;;;;;;;;;4992557;28;20355;-55
2023/12/17 17:37:39;;;;;;;443.20;168.70;;;;;;;;;;4986637;28;20208;-55
2023/12/17 17:40:05;;;;;;;435.73;164.77;;;;;;;;;;4985091;28;20232;-54
2023/12/17 17:42:31;;;;;;;531.67;217.17;;;;;;;;;;4985440;28;20884;-57
2023/12/17 17:44:57;;;;;;;489.33;187.47;;;;;;;;;;4976990;28;20997;-56
2023/12/17 17:47:23;;;;;;;444.17;164.33;;;;;;;;;;4982537;28;20220;-56
2023/12/17 17:49:49;;;;;;;427.37;157.37;;;;;;;;;;4988977;28;20244;-56
2023/12/17 17:52:15;;;;;;;440.47;169.87;;;;;;;;;;4988240;28;20574;-56
2023/12/17 17:54:41;;;;;;;468.53;179.17;;;;;;;;;;4985972;28;23149;-56
2023/12/17 17:57:07;;;;;;;463.97;177.90;;;;;;;;;;4981020;28;20725;-57
2023/12/17 17:59:33;;;;;;;472.90;182.13;;;;;;;;;;4980197;28;22028;-57
2023/12/17 18:01:59;;;;;;;495.20;196.13;;;;;;;;;;4981765;28;20228;-56
2023/12/17 18:04:25;;;;;;;466.67;178.77;;;;;;;;;;4985944;28;20244;-56
2023/12/17 18:06:51;;;;;;;440.10;164.30;;;;;;;;;;4991696;28;20244;-57
2023/12/17 18:09:18;;;;;;;460.00;180.07;;;;;;;;;;4979711;28;20208;-57
2023/12/17 18:11:44;;;;;;;478.27;185.73;;;;;;;;;;4985690;28;20300;-57
2023/12/17 18:14:10;;;;;;;466.07;178.67;;;;;;;;;;4989688;28;20311;-56
2023/12/17 18:16:36;;;;;;;477.50;185.47;;;;;;;;;;4978980;28;20308;-56
2023/12/17 18:19:03;;;;;;;477.33;185.17;;;;;;;;;;4978283;28;20241;-57
2023/12/17 18:21:37;;;;;;;506.60;197.13;;;;;;;;;;4977701;28;20595;-57
2023/12/17 18:24:03;;;;;;;418.13;158.70;;;;;;;;;;4990518;28;20231;-56
2023/12/17 18:26:30;;;;;;;460.43;174.87;;;;;;;;;;4976506;28;20251;-56
2023/12/17 18:28:56;;;;;;;470.83;182.90;;;;;;;;;;4980057;28;20339;-56
2023/12/17 18:31:22;;;;;;;493.53;197.40;;;;;;;;;;4980433;28;20226;-56
2023/12/17 18:33:48;;;;;;;445.73;173.27;;;;;;;;;;4987752;28;20392;-57
2023/12/17 18:36:15;;;;;;;473.10;179.97;;;;;;;;;;4983542;28;20247;-56
2023/12/17 18:38:47;;;;;;;458.73;177.20;;;;;;;;;;4982350;28;20221;-57
2023/12/17 18:41:14;;;;;;;457.13;178.77;;;;;;;;;;4987452;28;20568;-56
2023/12/17 18:43:40;;;;;;;409.77;160.10;;;;;;;;;;4990675;28;20228;-57
2023/12/17 18:46:15;;;;;;;476.03;186.97;;;;;;;;;;4987604;28;20205;-56
2023/12/17 18:48:42;;;;;;;461.47;195.47;;;;;;;;;;4984199;28;20745;-56
2023/12/17 18:51:08;;;;;;;450.53;168.70;;;;;;;;;;4988679;28;21769;-56
2023/12/17 18:53:36;;;;;;;475.97;190.97;;;;;;;;;;4987039;28;21685;-56
2023/12/17 18:56:02;;;;;;;467.63;181.20;;;;;;;;;;4983830;28;20296;-56
2023/12/17 18:58:28;;;;;;;486.60;185.70;;;;;;;;;;4988508;28;20251;-57
2023/12/17 19:00:54;;;;;;;463.93;170.77;;;;;;;;;;4984888;28;20229;-56
2023/12/17 19:03:20;;;;;;;453.60;169.40;;;;;;;;;;4983714;28;20228;-56
2023/12/17 19:05:46;;;;;;;472.83;179.20;;;;;;;;;;4983971;28;20319;-56
2023/12/17 19:08:12;;;;;;;485.07;181.80;;;;;;;;;;4984548;28;20931;-56
2023/12/17 19:10:38;;;;;;;471.73;180.23;;;;;;;;;;4989304;28;20666;-56
2023/12/17 19:13:04;;;;;;;424.53;158.33;;;;;;;;;;4989855;28;20256;-56
2023/12/17 19:15:30;;;;;;;446.20;169.33;;;;;;;;;;4989036;28;20647;-56
2023/12/17 19:17:56;;;;;;;504.70;196.10;;;;;;;;;;4987494;28;20194;-55
2023/12/17 19:20:22;;;;;;;471.57;179.13;;;;;;;;;;4982039;28;20382;-56
2023/12/17 19:22:48;;;;;;;420.17;155.20;;;;;;;;;;4993925;28;20225;-56
2023/12/17 19:25:14;;;;;;;435.70;161.13;;;;;;;;;;4988788;28;20561;-56
2023/12/17 19:27:40;;;;;;;462.63;175.93;;;;;;;;;;4987033;28;20181;-56
2023/12/17 19:30:06;;;;;;;415.37;152.60;;;;;;;;;;4983281;28;20606;-56
2023/12/17 19:32:32;;;;;;;483.13;182.90;;;;;;;;;;4982736;28;21340;-56
2023/12/17 19:34:58;;;;;;;466.03;174.67;;;;;;;;;;4986831;28;20470;-57
2023/12/17 19:37:24;;;;;;;482.40;188.97;;;;;;;;;;4980292;28;20324;-56
2023/12/17 19:39:52;;;;;;;452.63;174.23;;;;;;;;;;4983680;28;20228;-55
2023/12/17 19:42:18;;;;;;;452.67;174.70;;;;;;;;;;4993666;28;20822;-55
2023/12/17 19:44:44;;;;;;;477.00;178.03;;;;;;;;;;4989965;28;20278;-56
2023/12/17 19:47:10;;;;;;;461.33;171.37;;;;;;;;;;4990402;28;20691;-56
2023/12/17 19:49:36;;;;;;;452.87;171.63;;;;;;;;;;4986925;28;20234;-56
2023/12/17 19:52:02;;;;;;;432.40;157.10;;;;;;;;;;4993032;28;20384;-56
2023/12/17 19:54:28;;;;;;;508.80;196.60;;;;;;;;;;4984962;28;20275;-56
2023/12/17 19:56:54;;;;;;;449.93;166.97;;;;;;;;;;4995251;28;20416;-55
2023/12/17 19:59:20;;;;;;;445.23;164.07;;;;;;;;;;4987440;28;20224;-56
2023/12/17 20:01:47;;;;;;;429.77;160.33;;;;;;;;;;4997687;28;20786;-55
2023/12/17 20:04:14;;;;;;;442.57;163.27;;;;;;;;;;4988661;28;20317;-55
2023/12/17 20:06:40;;;;;;;480.37;189.13;;;;;;;;;;4990912;28;20186;-56
2023/12/17 20:09:06;;;;;;;476.73;179.97;;;;;;;;;;4987594;28;20203;-55
2023/12/17 20:11:32;;;;;;;480.70;180.73;;;;;;;;;;4988093;28;20295;-56
2023/12/17 20:13:58;;;;;;;490.37;185.57;;;;;;;;;;4990655;28;20362;-55
2023/12/17 20:16:24;;;;;;;437.70;164.73;;;;;;;;;;4988245;28;20224;-56
2023/12/17 20:18:50;;;;;;;449.77;168.13;;;;;;;;;;4992878;28;20236;-56
2023/12/17 20:21:16;;;;;;;487.67;187.67;;;;;;;;;;4995211;28;20733;-55
2023/12/17 20:23:44;;;;;;;449.27;168.53;;;;;;;;;;4989688;28;20995;-55
2023/12/17 20:26:10;;;;;;;412.13;153.57;;;;;;;;;;4997669;28;20694;-56
2023/12/17 20:28:36;;;;;;;447.70;165.27;;;;;;;;;;4990411;28;20251;-56
2023/12/17 20:31:04;;;;;;;453.97;172.37;;;;;;;;;;4996111;28;20216;-56
2023/12/17 20:33:30;;;;;;;431.77;163.90;;;;;;;;;;4994649;28;20185;-56
2023/12/17 20:35:56;;;;;;;412.43;152.60;;;;;;;;;;4991746;28;20175;-55
2023/12/17 20:38:22;;;;;;;443.83;166.77;;;;;;;;;;4996006;28;20830;-56
2023/12/17 20:40:48;;;;;;;461.53;173.10;;;;;;;;;;4992607;28;20251;-55
2023/12/17 20:43:14;;;;;;;439.97;161.97;;;;;;;;;;4989659;28;20336;-55
2023/12/17 20:45:40;;;;;;;479.17;181.00;;;;;;;;;;4989098;28;20558;-55
2023/12/17 20:48:07;;;;;;;460.33;170.97;;;;;;;;;;4993046;28;20607;-56
2023/12/17 20:50:34;;;;;;;450.40;167.93;;;;;;;;;;4990319;28;20228;-56
2023/12/17 20:53:00;;;;;;;420.00;155.53;;;;;;;;;;4990354;28;20327;-56
2023/12/17 20:55:26;;;;;;;465.77;181.80;;;;;;;;;;4983200;28;20221;-56
2023/12/17 20:57:52;;;;;;;411.87;150.73;;;;;;;;;;4991082;28;20262;-55
2023/12/17 21:00:19;;;;;;;431.67;160.10;;;;;;;;;;4988686;28;20726;-56
2023/12/17 21:02:45;;;;;;;486.67;188.47;;;;;;;;;;4989905;28;20572;-56
2023/12/17 21:05:11;;;;;;;452.37;168.90;;;;;;;;;;4992613;28;20210;-56
2023/12/17 21:07:37;;;;;;;469.07;176.07;;;;;;;;;;4988814;28;20633;-55
2023/12/17 21:10:03;;;;;;;413.53;151.40;;;;;;;;;;4992975;28;20221;-56
2023/12/17 21:12:29;;;;;;;486.43;188.00;;;;;;;;;;4987927;28;20193;-56
2023/12/17 21:14:57;;;;;;;450.23;167.27;;;;;;;;;;4993593;28;20189;-56
2023/12/17 21:17:23;;;;;;;459.33;176.07;;;;;;;;;;4991764;28;20308;-56
2023/12/17 21:19:49;;;;;;;455.23;169.33;;;;;;;;;;4989818;28;20583;-56
2023/12/17 21:22:15;;;;;;;482.97;185.13;;;;;;;;;;4991168;28;20241;-56
2023/12/17 21:24:41;;;;;;;450.60;167.37;;;;;;;;;;4988226;28;20324;-55
2023/12/17 21:27:28;;;;;;;417.23;151.80;;;;;;;;;;4991587;28;20267;-56
2023/12/17 21:29:54;;;;;;;468.77;175.83;;;;;;;;;;4986502;28;21390;-55
2023/12/17 21:32:20;;;;;;;521.87;205.77;;;;;;;;;;4976833;28;20220;-56
2023/12/17 21:34:46;;;;;;;486.20;187.20;;;;;;;;;;4990064;28;20586;-56
2023/12/17 21:37:12;;;;;;;490.27;186.27;;;;;;;;;;4986829;28;20217;-56
2023/12/17 21:39:38;;;;;;;489.13;184.90;;;;;;;;;;4983477;28;20240;-55
2023/12/17 21:42:05;;;;;;;440.10;162.57;;;;;;;;;;4989782;28;20185;-56
2023/12/17 21:44:31;;;;;;;442.77;165.67;;;;;;;;;;4986220;28;20763;-56
2023/12/17 21:46:57;;;;;;;457.67;172.40;;;;;;;;;;4988385;28;20216;-56
2023/12/17 21:49:23;;;;;;;447.70;165.93;;;;;;;;;;4989839;28;20315;-55
2023/12/17 21:51:49;;;;;;;464.43;175.07;;;;;;;;;;4985322;28;20718;-56
2023/12/17 21:54:15;;;;;;;449.20;173.67;;;;;;;;;;4984278;28;20619;-56
2023/12/17 21:56:41;;;;;;;467.53;178.97;;;;;;;;;;4991347;28;20221;-55
2023/12/17 21:59:07;;;;;;;424.87;159.73;;;;;;;;;;4992399;28;20701;-56
2023/12/17 22:01:33;;;;;;;477.67;180.87;;;;;;;;;;4982776;28;20221;-55
2023/12/17 22:03:59;;;;;;;433.97;161.80;;;;;;;;;;4993509;28;20213;-55
2023/12/17 22:06:25;;;;;;;453.03;170.73;;;;;;;;;;4988545;28;20276;-55
2023/12/17 22:08:51;;;;;;;431.37;160.37;;;;;;;;;;4990811;28;21911;-55
2023/12/17 22:11:17;;;;;;;433.27;160.67;;;;;;;;;;4993937;28;20216;-55
2023/12/17 22:13:42;;;;;;;476.53;186.80;;;;;;;;;;4992465;28;20228;-55
2023/12/17 22:16:15;;;;;;;438.77;164.07;;;;;;;;;;4991994;28;20219;-55
2023/12/17 22:18:41;;;;;;;447.40;170.27;;;;;;;;;;4994918;28;20328;-56
2023/12/17 22:21:16;;;;;;;451.87;174.90;;;;;;;;;;4998430;28;20678;-55
2023/12/17 22:23:42;;;;;;;448.33;170.63;;;;;;;;;;4998018;28;20691;-55
2023/12/17 22:26:07;;;;;;;427.57;162.20;;;;;;;;;;4994542;28;20220;-55
2023/12/17 22:28:33;;;;;;;430.90;163.27;;;;;;;;;;4992846;28;20218;-56
2023/12/17 22:30:59;;;;;;;424.57;159.73;;;;;;;;;;4997409;28;20256;-56
2023/12/17 22:33:25;;;;;;;424.57;161.50;;;;;;;;;;4993555;28;20648;-56
2023/12/17 22:35:51;;;;;;;450.90;173.27;;;;;;;;;;4997935;28;20185;-55
2023/12/17 22:38:17;;;;;;;412.53;155.60;;;;;;;;;;4996852;28;20212;-55
2023/12/17 22:40:43;;;;;;;445.77;175.87;;;;;;;;;;4992889;28;20232;-55
2023/12/17 22:43:09;;;;;;;388.63;145.07;;;;;;;;;;4997370;28;20235;-55
2023/12/17 22:45:35;;;;;;;452.97;174.40;;;;;;;;;;4993589;28;20801;-56
2023/12/17 22:48:01;;;;;;;411.27;155.53;;;;;;;;;;4998959;28;20462;-55
2023/12/17 22:50:27;;;;;;;460.83;178.63;;;;;;;;;;4986335;28;20213;-56
2023/12/17 22:52:53;;;;;;;460.63;174.37;;;;;;;;;;4981682;28;20221;-55
2023/12/17 22:55:19;;;;;;;419.83;156.97;;;;;;;;;;4982212;28;20279;-55
2023/12/17 22:57:45;;;;;;;449.63;171.87;;;;;;;;;;4983660;28;20652;-55
2023/12/17 23:00:12;;;;;;;465.23;180.27;;;;;;;;;;4986270;28;20499;-56
2023/12/17 23:02:39;;;;;;;423.57;162.07;;;;;;;;;;4981206;28;20208;-56
2023/12/17 23:05:06;;;;;;;464.80;183.33;;;;;;;;;;4977607;28;20228;-55
2023/12/17 23:07:32;;;;;;;417.17;155.70;;;;;;;;;;4983094;28;20217;-55
2023/12/17 23:09:58;;;;;;;486.20;190.27;;;;;;;;;;4973810;28;20224;-56
2023/12/17 23:12:24;;;;;;;434.80;169.53;;;;;;;;;;4980402;28;20244;-56
2023/12/17 23:14:50;;;;;;;435.87;168.33;;;;;;;;;;4978265;28;20190;-56
2023/12/17 23:17:16;;;;;;;416.63;158.20;;;;;;;;;;4982384;28;20650;-56
2023/12/17 23:19:42;;;;;;;467.30;181.47;;;;;;;;;;4983240;28;20221;-56
2023/12/17 23:22:08;;;;;;;417.27;159.33;;;;;;;;;;4985080;28;20593;-56
2023/12/17 23:24:37;;;;;;;451.63;171.87;;;;;;;;;;4988517;28;20189;-55
2023/12/17 23:27:03;;;;;;;430.43;162.77;;;;;;;;;;4990942;28;20192;-55
2023/12/17 23:29:29;;;;;;;440.17;166.93;;;;;;;;;;4990844;28;20205;-55
2023/12/17 23:31:55;;;;;;;455.43;175.17;;;;;;;;;;4994208;28;20213;-55
2023/12/17 23:34:21;;;;;;;456.70;175.97;;;;;;;;;;4998454;28;20205;-55
2023/12/17 23:36:47;;;;;;;431.17;169.83;;;;;;;;;;4996566;28;20225;-55
2023/12/17 23:39:13;;;;;;;447.03;173.30;;;;;;;;;;5004815;28;20222;-55
2023/12/17 23:41:39;;;;;;;473.00;182.37;;;;;;;;;;4994635;28;20396;-55
2023/12/17 23:44:05;;;;;;;454.77;171.37;;;;;;;;;;4973587;28;20221;-55
2023/12/17 23:46:31;;;;;;;430.03;160.57;;;;;;;;;;4974323;28;20213;-55
2023/12/17 23:48:57;;;;;;;428.67;160.73;;;;;;;;;;4977858;28;20247;-55
2023/12/17 23:51:23;;;;;;;435.67;163.53;;;;;;;;;;4988672;28;20213;-55
2023/12/17 23:53:52;;;;;;;451.30;174.07;;;;;;;;;;4987344;28;20738;-55
2023/12/17 23:56:18;;;;;;;427.00;156.90;;;;;;;;;;4993581;28;20312;-55
2023/12/17 23:58:44;;;;;;;458.17;175.33;;;;;;;;;;4992181;28;20232;-55
